Time;durP1;ratioP1;P1;durP2;ratioP2;P2;SDS_P1;SDS_P2;PMS_P1;PMS_P2;Temp;Humidity;BMP_temperature;BMP_pressure;BME280_temperature;BME280_humidity;BME280_pressure;Samples;Min_cycle;Max_cycle;Signal;HPM_P1;HPM_P2
2022/02/10 00:21:19;;;;;;;;;;;4.90;95.30;;;;;;5090843;28;19912;-72
2022/02/10 00:35:09;;;;;;;;;;;4.90;95.50;;;;;;5090853;28;19965;-71
2022/02/10 00:37:50;;;;;;;;;;;4.80;95.60;;;;;;5090623;28;19908;-73
2022/02/10 00:40:20;;;;;;;;;;;4.80;95.60;;;;;;5090570;28;20339;-72
2022/02/10 00:42:46;;;;;;;;;;;4.80;95.80;;;;;;5090610;28;19912;-72
2022/02/10 00:45:11;;;;;;;;;;;4.80;95.60;;;;;;5090654;28;19915;-71
2022/02/10 00:47:56;;;;;;;;;;;4.80;95.60;;;;;;5090245;28;19920;-71
2022/02/10 00:50:23;;;;;;;;;;;4.80;95.70;;;;;;5090331;28;19987;-72
2022/02/10 00:52:52;;;;;;;;;;;4.80;95.70;;;;;;5090017;28;19913;-71
2022/02/10 00:55:23;;;;;;;;;;;4.80;95.70;;;;;;5090207;28;19984;-71
2022/02/10 00:57:49;;;;;;;;;;;4.80;95.80;;;;;;5090267;28;20169;-71
2022/02/10 01:11:47;;;;;;;;;;;4.80;95.80;;;;;;5090261;28;19971;-71
2022/02/10 01:30:08;;;;;;;;;;;4.60;96.00;;;;;;5089154;28;19927;-71
2022/02/10 01:32:33;;;;;;;;;;;4.60;96.10;;;;;;5088047;28;20385;-72
2022/02/10 01:34:59;;;;;;;;;;;4.60;96.10;;;;;;5089466;28;19908;-72
2022/02/10 01:37:25;;;;;;;;;;;4.60;96.10;;;;;;5089387;28;19912;-72
2022/02/10 01:40:01;;;;;;;;;;;4.50;96.10;;;;;;5089437;28;19914;-72
2022/02/10 02:04:10;;;;;;;;;;;4.40;96.40;;;;;;5089274;28;19914;-71
2022/02/10 02:06:44;;;;;;;;;;;4.40;96.50;;;;;;5088791;28;19913;-71
2022/02/10 02:09:12;;;;;;;;;;;4.40;96.50;;;;;;5087734;28;19919;-72
2022/02/10 02:11:39;;;;;;;;;;;4.30;96.50;;;;;;5088722;28;20013;-71
2022/02/10 02:14:06;;;;;;;;;;;4.30;96.50;;;;;;5088693;28;19912;-71
2022/02/10 02:16:31;;;;;;;;;;;4.30;96.50;;;;;;5087142;28;19912;-71
2022/02/10 02:18:57;;;;;;;;;;;4.30;96.50;;;;;;5088697;28;20016;-71
2022/02/10 02:21:22;;;;;;;;;;;4.30;96.50;;;;;;5088670;28;19916;-71
2022/02/10 02:23:48;;;;;;;;;;;4.30;96.50;;;;;;5087258;28;19908;-71
2022/02/10 02:26:19;;;;;;;;;;;4.30;96.50;;;;;;5088501;28;19965;-71
2022/02/10 02:28:49;;;;;;;;;;;4.30;96.50;;;;;;5088437;28;19928;-72
2022/02/10 02:31:20;;;;;;;;;;;4.30;96.50;;;;;;5088246;28;19920;-71
2022/02/10 03:08:51;;;;;;;;;;;4.00;96.70;;;;;;5088224;28;19918;-71
2022/02/10 03:11:18;;;;;;;;;;;4.00;96.70;;;;;;5088019;28;19918;-71
2022/02/10 03:13:50;;;;;;;;;;;4.00;96.80;;;;;;5087943;28;19923;-71
2022/02/10 03:19:18;;;;;;;;;;;4.00;97.00;;;;;;5088012;28;19920;-71
2022/02/10 04:21:16;;;;;;;;;;;3.60;97.50;;;;;;5090870;28;20301;-71
2022/02/10 04:37:49;;;;;;;;;;;3.50;97.70;;;;;;5089888;28;19924;-71
2022/02/10 04:54:09;;;;;;;;;;;3.40;97.90;;;;;;5090477;28;19938;-70
2022/02/10 05:04:47;;;;;;;;;;;3.40;98.20;;;;;;5080216;28;19912;-71
2022/02/10 05:08:28;;;;;;;;;;;3.40;98.20;;;;;;5089837;28;19924;-72
2022/02/10 05:15:46;;;;;;;;;;;3.40;98.30;;;;;;5088677;28;19912;-71
2022/02/10 05:31:51;;;;;;;;;;;3.40;98.50;;;;;;5089439;28;19978;-72
2022/02/10 05:34:10;;;;;;;;;;;3.40;98.50;;;;;;5089313;28;19915;-72
2022/02/10 05:36:38;;;;;;;;;;;3.40;98.50;;;;;;5088194;28;19955;-72
2022/02/10 05:42:07;;;;;;;;;;;3.30;98.60;;;;;;5089434;28;19974;-71
2022/02/10 05:44:49;;;;;;;;;;;3.30;98.60;;;;;;5089343;28;19911;-71
2022/02/10 05:58:08;;;;;;;;;;;3.20;98.80;;;;;;5089352;28;19919;-71
2022/02/10 06:44:03;;;;;;;;;;;3.10;99.60;;;;;;5045296;28;19946;-72
2022/02/10 06:48:05;;;;;;;;;;;3.10;99.70;;;;;;5044151;28;19912;-72
2022/02/10 07:11:19;;;;;;;;;;;3.00;99.80;;;;;;5087813;28;20421;-71
2022/02/10 07:46:56;;;;;;;;;;;3.00;99.90;;;;;;5091237;28;20346;-65
2022/02/10 07:54:13;;;;;;;;;;;3.00;99.90;;;;;;5091333;28;19919;-73
2022/02/10 07:57:04;;;;;;;;;;;3.00;99.90;;;;;;5091394;28;19912;-71
2022/02/10 09:04:33;;;;;;;;;;;4.20;99.90;;;;;;5087246;28;19979;-72
2022/02/10 09:15:31;;;;;;;;;;;6.70;99.30;;;;;;5088283;28;19958;-71
2022/02/10 09:51:28;;;;;;;;;;;11.00;95.90;;;;;;5087752;28;19981;-71
2022/02/10 09:57:59;;;;;;;;;;;12.20;93.60;;;;;;5085467;28;19912;-71
2022/02/10 10:03:29;;;;;;;;;;;11.30;91.90;;;;;;5085126;28;19990;-72
2022/02/10 10:06:11;;;;;;;;;;;11.40;92.80;;;;;;5080672;28;19908;-72
2022/02/10 10:09:08;;;;;;;;;;;12.00;93.10;;;;;;5085829;28;19921;-72
2022/02/10 10:14:34;;;;;;;;;;;12.90;91.10;;;;;;5087884;28;20018;-71
2022/02/10 10:22:47;;;;;;;;;;;13.50;87.70;;;;;;5085891;28;19947;-72
2022/02/10 10:47:04;;;;;;;;;;;14.40;78.90;;;;;;5086920;28;19934;-72
2022/02/10 10:53:35;;;;;;;;;;;14.90;75.40;;;;;;5086668;28;21251;-72
2022/02/10 10:56:26;;;;;;;;;;;15.10;76.20;;;;;;5086486;28;19913;-72
2022/02/10 11:38:04;;;;;;;;;;;17.30;74.40;;;;;;5085456;28;19919;-73
2022/02/10 11:40:32;;;;;;;;;;;17.40;72.10;;;;;;5080011;28;20432;-73
2022/02/10 11:43:15;;;;;;;;;;;17.30;72.10;;;;;;5076137;28;19927;-73
2022/02/10 14:14:56;;;;;;;;;;;12.60;69.40;;;;;;5069436;28;19919;-73
2022/02/10 14:17:04;;;;;;;;;;;12.70;69.10;;;;;;5060576;28;19920;-73
2022/02/10 14:22:36;;;;;;;;;;;12.50;69.10;;;;;;5069374;28;19919;-73
2022/02/10 14:27:43;;;;;;;;;;;12.30;69.30;;;;;;5068829;28;19942;-73
2022/02/10 14:30:09;;;;;;;;;;;12.30;69.40;;;;;;5068596;28;20015;-72
2022/02/10 14:32:40;;;;;;;;;;;12.10;69.20;;;;;;5068752;28;19999;-73
2022/02/10 14:35:14;;;;;;;;;;;11.50;68.70;;;;;;5068548;28;19912;-73
2022/02/10 14:38:06;;;;;;;;;;;10.80;69.30;;;;;;5066410;28;19962;-72
2022/02/10 15:20:49;;;;;;;;;;;8.50;76.10;;;;;;5088249;28;19919;-71
2022/02/10 15:51:14;;;;;;;;;;;8.00;80.20;;;;;;5093683;28;20281;-72
2022/02/10 16:17:58;;;;;;;;;;;8.10;80.80;;;;;;5058332;28;19919;-73
2022/02/10 16:20:29;;;;;;;;;;;8.10;81.00;;;;;;5080932;28;19925;-73
2022/02/10 16:23:31;;;;;;;;;;;8.10;81.20;;;;;;5082054;28;19908;-72
2022/02/10 16:25:57;;;;;;;;;;;8.10;81.20;;;;;;5084672;28;19964;-72
2022/02/10 16:28:27;;;;;;;;;;;8.10;81.30;;;;;;5085475;28;19920;-71
2022/02/10 16:30:53;;;;;;;;;;;8.00;81.20;;;;;;5084484;28;20027;-71
2022/02/10 16:33:18;;;;;;;;;;;7.90;81.10;;;;;;5087377;28;19922;-72
2022/02/10 16:35:44;;;;;;;;;;;7.80;81.10;;;;;;5086743;28;19919;-73
2022/02/10 16:38:10;;;;;;;;;;;7.70;81.20;;;;;;5085870;28;19936;-73
2022/02/10 16:40:37;;;;;;;;;;;7.60;81.30;;;;;;5087855;28;19916;-72
2022/02/10 16:43:02;;;;;;;;;;;7.50;81.40;;;;;;5090539;28;19908;-71
2022/02/10 16:45:28;;;;;;;;;;;7.40;81.50;;;;;;5089506;28;19935;-73
2022/02/10 16:47:54;;;;;;;;;;;7.40;81.60;;;;;;5090142;28;19912;-71
2022/02/10 16:50:21;;;;;;;;;;;7.30;82.20;;;;;;5088868;28;20380;-72
2022/02/10 16:52:52;;;;;;;;;;;7.30;81.90;;;;;;5089911;28;20285;-74
2022/02/10 17:03:13;;;;;;;;;;;7.00;82.20;;;;;;5089917;28;20014;-72
2022/02/10 17:05:53;;;;;;;;;;;7.00;82.30;;;;;;5088287;28;19912;-72
2022/02/10 17:19:58;;;;;;;;;;;6.70;83.10;;;;;;5026814;28;19979;-73
2022/02/10 17:27:43;;;;;;;;;;;6.40;83.60;;;;;;5089414;28;20093;-73
2022/02/10 17:46:07;;;;;;;;;;;6.00;84.90;;;;;;5089603;28;20362;-73
2022/02/10 17:51:32;;;;;;;;;;;5.90;85.30;;;;;;5090087;28;20283;-74
2022/02/10 17:53:59;;;;;;;;;;;5.90;85.60;;;;;;5090187;28;19914;-76
2022/02/10 17:56:25;;;;;;;;;;;5.80;85.70;;;;;;5089580;28;19915;-75
2022/02/10 17:58:51;;;;;;;;;;;5.70;86.00;;;;;;5088790;28;19912;-74
2022/02/10 18:01:17;;;;;;;;;;;5.70;86.20;;;;;;5088788;28;19922;-72
2022/02/10 18:03:43;;;;;;;;;;;5.70;86.40;;;;;;5090002;28;19958;-73
2022/02/10 18:06:27;;;;;;;;;;;5.60;86.50;;;;;;5089833;28;19908;-75
2022/02/10 18:14:17;;;;;;;;;;;5.50;86.80;;;;;;5090064;28;19961;-74
2022/02/10 18:16:51;;;;;;;;;;;5.50;87.00;;;;;;5088284;28;20397;-73
2022/02/10 18:19:23;;;;;;;;;;;5.50;87.20;;;;;;5089690;28;20036;-75
2022/02/10 18:22:35;;;;;;;;;;;5.40;87.40;;;;;;5088245;28;19919;-73
2022/02/10 18:27:31;;;;;;;;;;;5.40;87.40;;;;;;5089058;28;19913;-74
2022/02/10 19:08:09;;;;;;;;;;;5.10;89.00;;;;;;5084086;28;19957;-73
2022/02/10 19:10:36;;;;;;;;;;;5.10;89.00;;;;;;5085675;28;19909;-76
2022/02/10 19:13:03;;;;;;;;;;;5.10;89.20;;;;;;5084021;28;20432;-74
2022/02/10 19:15:34;;;;;;;;;;;5.10;89.30;;;;;;5085873;28;19912;-75
2022/02/10 19:18:01;;;;;;;;;;;5.10;89.30;;;;;;5087079;28;19912;-75
2022/02/10 19:20:27;;;;;;;;;;;5.10;89.60;;;;;;5087275;28;19919;-73
2022/02/10 19:22:53;;;;;;;;;;;5.00;89.70;;;;;;5087247;28;19912;-73
2022/02/10 19:25:20;;;;;;;;;;;5.00;89.90;;;;;;5090871;28;20106;-73
2022/02/10 19:27:46;;;;;;;;;;;5.00;90.00;;;;;;5091417;28;20006;-74
2022/02/10 19:30:19;;;;;;;;;;;5.00;90.00;;;;;;5091551;28;20336;-73
2022/02/10 19:32:57;;;;;;;;;;;4.90;90.10;;;;;;5089781;28;19999;-73
2022/02/10 19:35:25;;;;;;;;;;;4.90;90.10;;;;;;5091508;28;19922;-73
2022/02/10 19:37:56;;;;;;;;;;;4.90;90.20;;;;;;5089733;28;19908;-73
2022/02/10 19:40:22;;;;;;;;;;;4.90;90.30;;;;;;5091297;28;19908;-73
2022/02/10 19:42:49;;;;;;;;;;;4.90;90.40;;;;;;5091411;28;19924;-74
2022/02/10 19:45:14;;;;;;;;;;;4.80;90.50;;;;;;5091276;28;19912;-73
2022/02/10 19:47:41;;;;;;;;;;;4.80;90.60;;;;;;5091029;28;19969;-73
2022/02/10 19:50:11;;;;;;;;;;;4.80;90.70;;;;;;5092140;28;20337;-73
2022/02/10 19:52:39;;;;;;;;;;;4.70;90.70;;;;;;5091215;28;19916;-73
2022/02/10 19:55:07;;;;;;;;;;;4.70;90.80;;;;;;5091782;28;19920;-72
2022/02/10 19:57:36;;;;;;;;;;;4.70;90.90;;;;;;5091085;28;19916;-73
2022/02/10 20:00:07;;;;;;;;;;;4.70;90.90;;;;;;5090944;28;19995;-73
2022/02/10 20:02:32;;;;;;;;;;;4.60;90.90;;;;;;5089323;28;19912;-73
2022/02/10 20:04:58;;;;;;;;;;;4.60;91.10;;;;;;5091159;28;19914;-72
2022/02/10 20:07:24;;;;;;;;;;;4.50;91.10;;;;;;5090820;28;19912;-73
2022/02/10 20:09:49;;;;;;;;;;;4.50;91.10;;;;;;5090986;28;19916;-72
2022/02/10 20:12:15;;;;;;;;;;;4.50;91.20;;;;;;5091092;28;19908;-73
2022/02/10 20:14:40;;;;;;;;;;;4.50;91.20;;;;;;5090715;28;20365;-73
2022/02/10 20:17:06;;;;;;;;;;;4.40;91.40;;;;;;5090954;28;20324;-73
2022/02/10 20:19:32;;;;;;;;;;;4.40;91.40;;;;;;5090842;28;19923;-73
2022/02/10 20:21:58;;;;;;;;;;;4.40;91.50;;;;;;5090539;28;20114;-72
2022/02/10 20:24:23;;;;;;;;;;;4.40;91.60;;;;;;5090775;28;20381;-73
2022/02/10 20:26:49;;;;;;;;;;;4.30;91.60;;;;;;5090581;28;19988;-73
2022/02/10 20:29:14;;;;;;;;;;;4.30;91.60;;;;;;5090424;28;20010;-73
2022/02/10 20:31:41;;;;;;;;;;;4.30;91.80;;;;;;5090750;28;19924;-73
2022/02/10 20:34:12;;;;;;;;;;;4.30;91.70;;;;;;5090631;28;19969;-73
2022/02/10 20:36:38;;;;;;;;;;;4.30;91.70;;;;;;5090463;28;19910;-73
2022/02/10 20:39:04;;;;;;;;;;;4.30;91.80;;;;;;5091115;28;19915;-73
2022/02/10 20:41:33;;;;;;;;;;;4.30;91.80;;;;;;5090258;28;19915;-72
2022/02/10 20:44:00;;;;;;;;;;;4.20;91.80;;;;;;5088741;28;20285;-72
2022/02/10 20:46:28;;;;;;;;;;;4.20;91.80;;;;;;5090315;28;19908;-73
2022/02/10 20:48:54;;;;;;;;;;;4.20;91.80;;;;;;5090308;28;19962;-72
2022/02/10 20:51:20;;;;;;;;;;;4.20;91.90;;;;;;5090155;28;19908;-72
2022/02/10 20:53:47;;;;;;;;;;;4.20;91.90;;;;;;5090236;28;19908;-74
2022/02/10 20:56:14;;;;;;;;;;;4.20;91.90;;;;;;5090211;28;19912;-73
2022/02/10 20:58:40;;;;;;;;;;;4.20;91.90;;;;;;5089802;28;19961;-73
2022/02/10 21:01:10;;;;;;;;;;;4.10;92.00;;;;;;5090203;28;19972;-73
2022/02/10 21:03:36;;;;;;;;;;;4.10;92.00;;;;;;5087936;28;19985;-74
2022/02/10 21:09:07;;;;;;;;;;;4.10;92.00;;;;;;5051311;28;19952;-73
2022/02/10 21:11:32;;;;;;;;;;;4.10;92.00;;;;;;5088041;28;20286;-74
2022/02/10 21:13:58;;;;;;;;;;;4.00;92.00;;;;;;5088795;28;19923;-73
2022/02/10 21:16:26;;;;;;;;;;;4.10;92.10;;;;;;5089750;28;19912;-73
2022/02/10 21:18:52;;;;;;;;;;;4.00;92.10;;;;;;5089125;28;20235;-73
2022/02/10 21:21:18;;;;;;;;;;;3.90;92.00;;;;;;5089243;28;19913;-74
2022/02/10 21:23:51;;;;;;;;;;;3.90;92.10;;;;;;5089182;28;19912;-75
2022/02/10 21:26:20;;;;;;;;;;;3.90;92.10;;;;;;5088027;28;19912;-73
2022/02/10 21:28:47;;;;;;;;;;;3.80;92.10;;;;;;5087527;28;19916;-73
2022/02/10 21:31:13;;;;;;;;;;;3.70;92.20;;;;;;5088678;28;19928;-73
2022/02/10 21:38:58;;;;;;;;;;;3.70;92.40;;;;;;5089222;28;20010;-73
2022/02/10 22:19:10;;;;;;;;;;;3.50;93.30;;;;;;5046095;28;19928;-74
2022/02/10 22:21:43;;;;;;;;;;;3.50;93.30;;;;;;5046159;28;19909;-74
2022/02/10 22:24:12;;;;;;;;;;;3.50;93.30;;;;;;5059958;28;19916;-75
2022/02/10 22:26:39;;;;;;;;;;;3.50;93.40;;;;;;5087471;28;20358;-74
2022/02/10 22:29:18;;;;;;;;;;;3.50;93.50;;;;;;5088411;28;20331;-74
2022/02/10 22:34:38;;;;;;;;;;;3.50;93.50;;;;;;5088541;28;20000;-73
2022/02/10 22:37:07;;;;;;;;;;;3.60;93.50;;;;;;5088316;28;19912;-73
2022/02/10 22:39:37;;;;;;;;;;;3.50;93.50;;;;;;5087976;28;19935;-73
2022/02/10 22:42:03;;;;;;;;;;;3.50;93.60;;;;;;5088271;28;19908;-73
2022/02/10 22:44:29;;;;;;;;;;;3.50;93.60;;;;;;5087050;28;20349;-73
2022/02/10 22:46:54;;;;;;;;;;;3.50;93.60;;;;;;5088257;28;19994;-73
2022/02/10 22:49:20;;;;;;;;;;;3.50;93.70;;;;;;5088212;28;19916;-74
2022/02/10 22:51:46;;;;;;;;;;;3.50;93.70;;;;;;5088362;28;19912;-73
2022/02/10 22:54:14;;;;;;;;;;;3.40;93.70;;;;;;5088147;28;20384;-74
2022/02/10 22:56:43;;;;;;;;;;;3.40;93.70;;;;;;5088170;28;20387;-73
2022/02/10 22:59:09;;;;;;;;;;;3.40;93.70;;;;;;5087308;28;20350;-74
2022/02/10 23:01:36;;;;;;;;;;;3.40;93.70;;;;;;5086990;28;20380;-74
2022/02/10 23:04:02;;;;;;;;;;;3.40;93.70;;;;;;5088006;28;19908;-74
2022/02/10 23:06:28;;;;;;;;;;;3.30;93.70;;;;;;5088139;28;20007;-73
2022/02/10 23:08:53;;;;;;;;;;;3.30;93.60;;;;;;5088084;28;20015;-74
2022/02/10 23:11:27;;;;;;;;;;;3.30;93.60;;;;;;5088087;28;19908;-74
2022/02/10 23:13:53;;;;;;;;;;;3.30;93.60;;;;;;5087973;28;19912;-74
2022/02/10 23:16:19;;;;;;;;;;;3.30;93.60;;;;;;5088023;28;19912;-74
2022/02/10 23:18:45;;;;;;;;;;;3.30;93.50;;;;;;5086575;28;19930;-74
2022/02/10 23:21:13;;;;;;;;;;;3.30;93.60;;;;;;5087946;28;19912;-75
2022/02/10 23:23:39;;;;;;;;;;;3.30;93.60;;;;;;5087899;28;19923;-74
2022/02/10 23:26:06;;;;;;;;;;;3.30;93.70;;;;;;5086452;28;19923;-74
2022/02/10 23:28:36;;;;;;;;;;;3.30;93.60;;;;;;5087799;28;19919;-73
2022/02/10 23:31:02;;;;;;;;;;;3.30;93.70;;;;;;5087476;28;19920;-74
2022/02/10 23:33:31;;;;;;;;;;;3.30;93.80;;;;;;5087831;28;19915;-74
2022/02/10 23:38:43;;;;;;;;;;;3.20;93.80;;;;;;5087713;28;19969;-74
2022/02/10 23:43:50;;;;;;;;;;;3.20;94.00;;;;;;5087772;28;19912;-74
2022/02/10 23:46:17;;;;;;;;;;;3.20;94.00;;;;;;5087629;28;19938;-73
2022/02/10 23:48:43;;;;;;;;;;;3.20;94.00;;;;;;5087441;28;19934;-74
2022/02/10 23:51:09;;;;;;;;;;;3.10;94.10;;;;;;5087754;28;20346;-73
2022/02/10 23:53:35;;;;;;;;;;;3.10;94.20;;;;;;5087678;28;19908;-74
2022/02/10 23:56:04;;;;;;;;;;;3.10;94.20;;;;;;5087759;28;20455;-75
